Westbrook, MN (56183)

8:45 PM CST on February 27, 2017 (GMT -0600)
300th st | | Change Station

Elev 1457 ft 44.05 °N, 95.44 °W | Updated 19 seconds ago

Rain
Rain
33.4 °F
Feels Like 33 °F
N
2.7
Wind Variable Wind from SE

Today
High -- | Low -- °F
--% Chance of Precip.
Yesterday
High -- | Low -- °F
Precip. -- in
Pressure 29.79 in
Visibility 10.0 miles
Clouds Overcast 5500 ft
Windchill 33 °F
Dew Point 31 °F
Humidity 92%
Rainfall 1.59 in
Snow Depth Not available.
7:01 AM 6:07 PM
Waxing Crescent, 3% visible
METAR KTKC 280233Z AUTO 15007KT 10SM OVC055 02/00 A2979 RMK AO2 T00241005
Pressure 29.79 in
Visibility 10.0 miles
Clouds Overcast 5500 ft
Windchill 33 °F
Dew Point 31 °F
Humidity 92%
Rainfall 1.59 in
Snow Depth Not available.
7:01 AM 6:07 PM
Waxing Crescent, 3% visible
METAR KTKC 280233Z AUTO 15007KT 10SM OVC055 02/00 A2979 RMK AO2 T00241005

Get Your Daily Forecast Email!

Thanks for signing up!

Be on the lookout for a verification email in your inbox.

You'll start receiving the daily forecast at 8 AM.

×

10-Day Weather Forecast

Almanac

Astronomy

Feb. 27, 2017 Rise Set
Actual Time
Civil Twilight
Nautical Twilight
Astronomical Twilight
Moon
Length of Visible Light
Length of Day
Tomorrow will be .
, % of the Moon is Illuminated

Today's Extremes

State Highs State Lows

Community

WunderPhotos

Upload Photos

1,962,540 photos uploaded!

WunderBlog® & News

Nearby

Air Quality

  Air Quality AQ Index Pollutant
Not available.

Snow Depth

Station Depth Elevation

Earthquake Activity

City Distance Mag. Time & Date
Minimum magnitude displayed is 2.5.

Coastal Water Temperatures

Place Temperature

Stations

Nearby Weather Stations

Station Location Temp. Windchill Dew Point Humidity Wind Precip. Elev Updated Type
                   

Watches & Warnings

There are currently no watches in effect.